Ash Ridge, Ohio
Current Conditions -  °F | °C
As of 8:15 AM on Tuesday 21 Oct 2014 (Local Time) from KFGX Reporting Station
Overcast Overcast  
Wind Chill: 45°   Ceiling: 6000
Heat Index: 49°   Visibility: 7mi
Dew Point: 47°   Wind: 8mph
Humidity: 96%   Direction: 300°WNW
Pressure: 29.98"   Gusts: NA
Location:  38.8698°N, 83.9081°W
Report Text: KFGX 211215Z AUTO 30007KT 7SM SCT015 OVC060 09/09 A2998 RMK AO2 T00920086
Loading
Personal Weather Stations






























Interactive Weather Map
Tropical Storm Tracking
New forecast layout! Learn more

10-Day Weather Forecast

Advertisements
Track Severe Weather on mobile